This is the latest recevied weather packets stored in our database for station/object N4ZIQ. If no packets are shown the sender has not sent any weather packets the latest 10 day(s).
| Time | Temp. | Humidity | Pressure | Rain* | Wind** | Luminosity | Snow |
|---|---|---|---|---|---|---|---|
| 1778155849 | 22.22° C | 90% | 1016.6 hPa | 0 mm | - | 128 W/m² | - |
| 1778155545 | 22.22° C | 92% | 1016.5 hPa | 0 mm | - | 127 W/m² | - |
| 1778155253 | 21.67° C | 93% | 1016.5 hPa | 0 mm | - | 134 W/m² | - |
| 1778154947 | 21.11° C | 94% | 1016.3 hPa | 0 mm | - | 113 W/m² | - |
| 1778154646 | 20.56° C | 95% | 1016.3 hPa | 0 mm | - | 109 W/m² | - |
| 1778154355 | 19.44° C | 95% | 1016.3 hPa | 0 mm | - | 88 W/m² | - |
| 1778154045 | 18.89° C | 95% | 1016.3 hPa | 0 mm | - | 77 W/m² | - |
| 1778153746 | 18.33° C | 95% | 1016.3 hPa | 0 mm | - | 67 W/m² | - |
| 1778153451 | 17.78° C | 95% | 1016.2 hPa | 0 mm | - | 60 W/m² | - |
| 1778153145 | 17.22° C | 95% | 1016.2 hPa | 0 mm | - | 60 W/m² | - |
| 1778152845 | 16.67° C | 94% | 1016.2 hPa | 0 mm | - | 49 W/m² | - |
| 1778152553 | 16.11° C | 94% | 1016 hPa | 0 mm | - | 39 W/m² | - |
| 1778152249 | 15.56° C | 94% | 1016.1 hPa | 0 mm | - | 33 W/m² | - |
| 1778151946 | 15.56° C | 94% | 1016.1 hPa | 0 mm | - | 26 W/m² | - |
| 1778151657 | 15.56° C | 94% | 1016 hPa | 0 mm | - | 21 W/m² | - |
| 1778151350 | 15.56° C | 94% | 1016.1 hPa | 0 mm | - | 18 W/m² | - |
| 1778151045 | 15° C | 94% | 1016.1 hPa | 0 mm | - | 12 W/m² | - |
| 1778150753 | 15° C | 94% | 1015.9 hPa | 0 mm | - | 9 W/m² | - |
| 1778150447 | 15° C | 94% | 1015.9 hPa | 0 mm | - | 0 W/m² | - |
| 1778150146 | 15.56° C | 94% | 1015.9 hPa | 0 mm | - | 0 W/m² | - |
| 1778149851 | 15° C | 94% | 1016 hPa | 0 mm | - | 0 W/m² | - |
| 1778149545 | 15° C | 93% | 1015.8 hPa | 0 mm | - | 0 W/m² | - |
| 1778149246 | 15.56° C | 94% | 1015.7 hPa | 0 mm | - | 0 W/m² | - |
| 1778148964 | 15.56° C | 94% | 1015.7 hPa | 0 mm | - | 0 W/m² | - |
| 1778148648 | 15.56° C | 94% | 1015.6 hPa | 0 mm | - | 0 W/m² | - |
* Rain latest hour (hover to see other rain measurements)
** Current wind speed in m/s (hover to see current wind gust speed)